الصفحة الرئيسية
METAR-TAF:

METAR-TAF

مطار :

زيلينا, سلوفاكيا

دائرة عرض: 49-14N, خط طول: 018-36-49E, ارتفاع: 312 متر

مراقبة الطقس الحالي

تاريخ ووقت الإصدار 33 دقيقة قبل الساعة 01:30UTC
ريح 5 عقدة من الشرق, الاتجاه يتراوح بين الشرق/الشمال الشرقي و الجنوب الشرقي
درجة الحرارة 16°درجة مئوية
الرطوبة 94%
ضغط 1021 hPa
الرؤية 10 كم أو أكثر
غيوم قليلة على ارتفاع 5500 قدم

METAR: LZZI 180130Z 10005KT 060V130 9999 FEW055 16/15 Q1021

زمن: 04:03 (02:03 UTC)

توقعات

تاريخ ووقت الإصدار 2ساعات و 48 دقيقة قبل الساعة 23:15UTC
التوقعات صالحة من18 الساعة 00 UTC إلى 18 الساعة 09 UTC
ريح 4 عقدة من الشمال الشرقي
الرؤية 10 كم أو أكثر
غيوم قليلة على ارتفاع 5000 قدم

TAF: LZZI 172315Z 1800/1809 05004KT 9999 FEW050

أرصاد الطقس والتوقعات من أكثر من 4000 مطار (تقارير الطقس للمطار METAR والتنبؤ بالطقس بالمطارTAF).

المحطات المتاحة هي النقط الصفراء والحمراء على الخريطة.

حرك المؤشر فوق النقطة لمعرفة اسم المحطة.

ثم انقر لمعرفة أرصاد وتوقعات الطقس.

لتغيير الخارطة: اضغط على الأزرار الخضراء مع رمز الصليب الأسود للتكبير. على الزر الأخضر مع شرطة للتصغير، أو على الأسهم الخضراء للخرائط المجاورة.


METAR-TAF: